Time;durP1;ratioP1;P1;durP2;ratioP2;P2;SDS_P1;SDS_P2;PMS_P1;PMS_P2;Temp;Humidity;BMP_temperature;BMP_pressure;BME280_temperature;BME280_humidity;BME280_pressure;Samples;Min_cycle;Max_cycle;Signal;HPM_P1;HPM_P2
2022/12/28 00:00:45;;;;;;;14.07;8.67;;;;;;;;;;741227;186;919764;-72
2022/12/28 00:03:11;;;;;;;22.60;10.17;;;;;;;;;;741965;186;918495;-73
2022/12/28 00:05:37;;;;;;;15.63;9.60;;;;;;;;;;730166;191;919789;-71
2022/12/28 00:08:03;;;;;;;13.67;9.67;;;;;;;;;;735660;188;915937;-71
2022/12/28 00:10:29;;;;;;;17.53;10.33;;;;;;;;;;750860;186;914697;-71
2022/12/28 00:12:55;;;;;;;16.33;9.67;;;;;;;;;;745963;185;919040;-71
2022/12/28 00:15:21;;;;;;;16.87;9.80;;;;;;;;;;754463;185;918147;-71
2022/12/28 00:17:47;;;;;;;17.43;10.37;;;;;;;;;;748085;185;1012489;-71
2022/12/28 00:20:12;;;;;;;20.67;11.48;;;;;;;;;;748433;185;919904;-71
2022/12/28 00:22:38;;;;;;;11.63;8.43;;;;;;;;;;749624;185;1121819;-72
2022/12/28 00:25:05;;;;;;;11.83;9.20;;;;;;;;;;732988;187;1020667;-72
2022/12/28 00:27:30;;;;;;;16.50;10.03;;;;;;;;;;749201;183;918503;-73
2022/12/28 00:29:56;;;;;;;20.50;10.00;;;;;;;;;;752036;186;918737;-73
2022/12/28 00:32:22;;;;;;;13.10;8.67;;;;;;;;;;738113;187;918997;-72
2022/12/28 00:34:48;;;;;;;16.30;8.90;;;;;;;;;;744860;185;916817;-73
2022/12/28 00:37:14;;;;;;;15.87;8.83;;;;;;;;;;740778;188;916586;-71
2022/12/28 00:39:40;;;;;;;20.33;11.17;;;;;;;;;;723271;191;919175;-72
2022/12/28 00:42:06;;;;;;;16.33;9.77;;;;;;;;;;716040;191;918839;-71
2022/12/28 00:44:31;;;;;;;15.60;10.47;;;;;;;;;;730515;191;919148;-71
2022/12/28 00:46:57;;;;;;;14.87;9.27;;;;;;;;;;735052;190;918656;-71
2022/12/28 00:49:23;;;;;;;14.97;9.53;;;;;;;;;;746527;186;919284;-71
2022/12/28 00:51:49;;;;;;;19.33;9.83;;;;;;;;;;738011;186;919744;-73
2022/12/28 00:54:15;;;;;;;15.33;10.63;;;;;;;;;;753190;185;918159;-72
2022/12/28 00:56:41;;;;;;;13.97;9.23;;;;;;;;;;742543;187;918952;-73
2022/12/28 00:59:07;;;;;;;19.02;10.23;;;;;;;;;;735995;186;919677;-72
2022/12/28 01:01:32;;;;;;;13.97;10.17;;;;;;;;;;735284;190;919512;-71
2022/12/28 01:03:58;;;;;;;15.67;9.50;;;;;;;;;;736864;191;914905;-72
2022/12/28 01:06:24;;;;;;;17.20;10.27;;;;;;;;;;737670;188;919538;-73
2022/12/28 01:08:50;;;;;;;14.53;10.50;;;;;;;;;;739826;184;918820;-73
2022/12/28 01:11:18;;;;;;;19.17;9.67;;;;;;;;;;755760;185;918564;-73
2022/12/28 01:13:44;;;;;;;15.27;10.00;;;;;;;;;;749947;185;919617;-73
2022/12/28 01:16:10;;;;;;;16.60;11.23;;;;;;;;;;740488;189;919444;-72
2022/12/28 01:18:36;;;;;;;17.70;9.50;;;;;;;;;;753931;185;918001;-73
2022/12/28 01:21:10;;;;;;;20.67;9.97;;;;;;;;;;750566;185;919416;-73
2022/12/28 01:23:36;;;;;;;12.67;8.87;;;;;;;;;;734379;190;918409;-71
2022/12/28 01:26:02;;;;;;;14.90;9.40;;;;;;;;;;738800;188;919255;-72
2022/12/28 01:28:28;;;;;;;15.07;10.40;;;;;;;;;;743716;187;916797;-73
2022/12/28 01:30:54;;;;;;;19.33;11.37;;;;;;;;;;742928;184;913067;-72
2022/12/28 01:33:19;;;;;;;23.10;10.03;;;;;;;;;;733158;187;924859;-74
2022/12/28 01:35:45;;;;;;;18.05;11.12;;;;;;;;;;734023;192;917819;-73
2022/12/28 01:38:11;;;;;;;21.90;13.00;;;;;;;;;;719530;192;918619;-72
2022/12/28 01:40:37;;;;;;;35.30;14.20;;;;;;;;;;747975;185;1021249;-72
2022/12/28 01:43:03;;;;;;;30.23;13.80;;;;;;;;;;742522;185;1020282;-72
2022/12/28 01:45:29;;;;;;;32.30;16.70;;;;;;;;;;741703;189;918006;-74
2022/12/28 01:47:54;;;;;;;16.57;10.67;;;;;;;;;;745877;185;920055;-74
2022/12/28 01:50:20;;;;;;;19.20;9.20;;;;;;;;;;739658;189;919188;-73
2022/12/28 01:52:46;;;;;;;18.50;9.63;;;;;;;;;;750762;186;917017;-72
2022/12/28 01:55:13;;;;;;;19.10;9.90;;;;;;;;;;738887;186;918782;-72
2022/12/28 01:57:39;;;;;;;19.33;10.70;;;;;;;;;;740249;186;1022134;-72
2022/12/28 02:00:05;;;;;;;15.40;10.50;;;;;;;;;;734841;190;921484;-72
2022/12/28 02:02:31;;;;;;;20.47;10.10;;;;;;;;;;737690;187;918011;-72
2022/12/28 02:04:57;;;;;;;21.23;12.37;;;;;;;;;;739433;186;918930;-72
2022/12/28 02:07:26;;;;;;;20.17;10.80;;;;;;;;;;735994;188;920607;-72
2022/12/28 02:09:51;;;;;;;26.47;13.47;;;;;;;;;;747800;187;921563;-73
2022/12/28 02:12:17;;;;;;;17.40;11.20;;;;;;;;;;745309;187;915822;-73
2022/12/28 02:14:43;;;;;;;21.08;13.13;;;;;;;;;;726932;191;921583;-72
2022/12/28 02:17:09;;;;;;;51.87;23.40;;;;;;;;;;738373;191;1020056;-72
2022/12/28 02:19:35;;;;;;;33.77;17.50;;;;;;;;;;734983;190;917385;-72
2022/12/28 02:22:03;;;;;;;26.90;15.30;;;;;;;;;;727005;191;942932;-72
2022/12/28 02:24:32;;;;;;;35.83;16.12;;;;;;;;;;733606;188;919060;-72
2022/12/28 02:26:59;;;;;;;32.60;17.33;;;;;;;;;;740345;186;919376;-72
2022/12/28 02:29:26;;;;;;;33.13;15.73;;;;;;;;;;748784;185;920462;-71
2022/12/28 02:31:57;;;;;;;30.80;16.87;;;;;;;;;;748299;184;919680;-71
2022/12/28 02:34:24;;;;;;;31.07;14.83;;;;;;;;;;747071;185;931631;-71
2022/12/28 02:36:53;;;;;;;38.70;20.20;;;;;;;;;;741528;186;920399;-72
2022/12/28 02:39:19;;;;;;;30.10;16.53;;;;;;;;;;747746;186;921307;-72
2022/12/28 02:41:44;;;;;;;25.40;14.30;;;;;;;;;;736973;190;918193;-74
2022/12/28 02:44:10;;;;;;;37.00;18.20;;;;;;;;;;737739;189;919181;-72
2022/12/28 02:52:01;;;;;;;24.67;13.50;;;;;;;;;;738947;183;1017667;-71
2022/12/28 02:56:58;;;;;;;24.80;13.70;;;;;;;;;;731351;190;913074;-72
2022/12/28 02:59:26;;;;;;;23.97;14.27;;;;;;;;;;741759;189;887143;-72
2022/12/28 03:01:53;;;;;;;23.00;13.27;;;;;;;;;;745110;184;916980;-73
2022/12/28 03:04:25;;;;;;;21.05;13.90;;;;;;;;;;742483;186;919148;-72
2022/12/28 03:09:34;;;;;;;30.10;15.30;;;;;;;;;;732889;190;913845;-72
2022/12/28 03:12:00;;;;;;;26.57;12.83;;;;;;;;;;741223;187;914574;-72
2022/12/28 03:14:27;;;;;;;26.63;15.00;;;;;;;;;;733514;189;919303;-72
2022/12/28 03:32:05;;;;;;;21.87;12.40;;;;;;;;;;734958;188;919550;-72
2022/12/28 03:34:31;;;;;;;19.93;10.90;;;;;;;;;;742196;188;918867;-73
2022/12/28 03:36:57;;;;;;;27.97;14.67;;;;;;;;;;749790;185;919059;-72
2022/12/28 03:39:28;;;;;;;26.90;14.90;;;;;;;;;;735352;188;921772;-71
2022/12/28 03:44:26;;;;;;;20.50;12.30;;;;;;;;;;739319;190;918496;-72
2022/12/28 03:46:51;;;;;;;22.93;14.60;;;;;;;;;;736871;187;919149;-73
2022/12/28 03:49:17;;;;;;;21.77;11.87;;;;;;;;;;734880;186;919149;-72
2022/12/28 03:51:43;;;;;;;18.47;12.77;;;;;;;;;;745389;185;919141;-73
2022/12/28 03:54:09;;;;;;;24.87;12.67;;;;;;;;;;738201;185;948692;-73
2022/12/28 03:56:35;;;;;;;19.10;12.50;;;;;;;;;;736313;188;926134;-73
2022/12/28 03:59:00;;;;;;;22.57;12.63;;;;;;;;;;730337;192;919095;-74
2022/12/28 04:01:26;;;;;;;15.17;9.20;;;;;;;;;;737457;186;1020995;-72
2022/12/28 04:03:52;;;;;;;16.00;10.20;;;;;;;;;;740045;186;920386;-73
2022/12/28 04:06:18;;;;;;;21.12;10.25;;;;;;;;;;745421;187;918956;-72
2022/12/28 04:08:44;;;;;;;21.67;9.93;;;;;;;;;;737378;187;919328;-72
2022/12/28 04:11:10;;;;;;;17.70;10.70;;;;;;;;;;744706;187;919293;-72
2022/12/28 04:13:36;;;;;;;16.45;10.80;;;;;;;;;;743014;185;942140;-72
2022/12/28 04:16:01;;;;;;;9.83;6.53;;;;;;;;;;746581;186;921617;-73
2022/12/28 04:18:27;;;;;;;8.50;5.47;;;;;;;;;;746959;186;919441;-72
2022/12/28 04:20:53;;;;;;;8.30;5.63;;;;;;;;;;732979;188;919553;-72
2022/12/28 04:23:32;;;;;;;8.30;4.97;;;;;;;;;;737964;190;918890;-72
2022/12/28 04:26:02;;;;;;;9.13;5.23;;;;;;;;;;738325;188;918201;-73
2022/12/28 04:28:27;;;;;;;13.23;5.93;;;;;;;;;;736071;190;919462;-74
2022/12/28 04:30:53;;;;;;;13.67;6.03;;;;;;;;;;740787;187;919029;-72
2022/12/28 04:33:19;;;;;;;13.60;6.67;;;;;;;;;;740322;188;1017831;-74
2022/12/28 04:35:45;;;;;;;9.20;6.40;;;;;;;;;;746024;184;915819;-73
2022/12/28 04:38:11;;;;;;;9.57;6.63;;;;;;;;;;742103;186;916166;-72
2022/12/28 04:40:37;;;;;;;10.80;6.43;;;;;;;;;;727261;190;1123874;-72
2022/12/28 04:43:03;;;;;;;7.60;5.23;;;;;;;;;;732764;192;919492;-74
2022/12/28 04:45:28;;;;;;;8.77;5.40;;;;;;;;;;726672;191;918470;-72
2022/12/28 04:47:55;;;;;;;10.50;5.10;;;;;;;;;;743420;186;918925;-72
2022/12/28 04:50:21;;;;;;;8.77;4.70;;;;;;;;;;739606;187;919240;-74
2022/12/28 04:52:47;;;;;;;10.13;5.60;;;;;;;;;;726755;190;919175;-73
2022/12/28 04:55:13;;;;;;;10.53;4.77;;;;;;;;;;734957;187;919468;-72
2022/12/28 04:57:39;;;;;;;10.57;5.47;;;;;;;;;;736539;190;919342;-73
2022/12/28 05:00:05;;;;;;;6.40;4.50;;;;;;;;;;746717;185;918536;-73
2022/12/28 05:02:31;;;;;;;8.02;5.00;;;;;;;;;;739274;188;919036;-73
2022/12/28 05:04:57;;;;;;;9.47;5.90;;;;;;;;;;745902;185;919231;-72
2022/12/28 05:07:23;;;;;;;10.00;5.67;;;;;;;;;;742064;188;918289;-72
2022/12/28 05:09:48;;;;;;;10.30;5.20;;;;;;;;;;742504;185;919818;-74
2022/12/28 05:12:14;;;;;;;11.30;6.30;;;;;;;;;;734587;190;919471;-72
2022/12/28 05:14:41;;;;;;;11.03;5.90;;;;;;;;;;734558;190;919213;-74
2022/12/28 05:17:06;;;;;;;8.10;4.93;;;;;;;;;;742414;186;918306;-73
2022/12/28 05:19:32;;;;;;;10.43;5.50;;;;;;;;;;739421;187;919613;-73
2022/12/28 05:21:58;;;;;;;7.60;5.83;;;;;;;;;;749589;187;919308;-73
2022/12/28 05:24:24;;;;;;;8.27;5.07;;;;;;;;;;736060;187;918357;-73
2022/12/28 05:26:49;;;;;;;12.00;5.80;;;;;;;;;;734837;190;918665;-74
2022/12/28 05:29:15;;;;;;;16.17;5.50;;;;;;;;;;737684;189;915304;-72
2022/12/28 05:31:41;;;;;;;16.30;4.50;;;;;;;;;;743149;188;919469;-72
2022/12/28 05:34:07;;;;;;;8.40;4.05;;;;;;;;;;737916;186;919245;-74
2022/12/28 05:36:36;;;;;;;8.80;4.37;;;;;;;;;;737520;187;918454;-73
2022/12/28 05:38:59;;;;;;;6.20;4.23;;;;;;;;;;735661;189;918660;-74
2022/12/28 05:41:25;;;;;;;6.37;3.50;;;;;;;;;;739220;186;919509;-73
2022/12/28 05:43:50;;;;;;;8.90;4.80;;;;;;;;;;742509;186;919019;-73
2022/12/28 05:46:18;;;;;;;5.80;3.80;;;;;;;;;;733421;190;918742;-72
2022/12/28 05:48:42;;;;;;;7.50;4.80;;;;;;;;;;716318;194;918132;-74
2022/12/28 05:51:08;;;;;;;6.20;4.10;;;;;;;;;;719721;192;919328;-74
2022/12/28 05:53:34;;;;;;;9.13;4.47;;;;;;;;;;723042;190;918750;-74
2022/12/28 05:56:00;;;;;;;9.13;4.43;;;;;;;;;;724049;192;919387;-73
2022/12/28 05:58:26;;;;;;;7.40;3.97;;;;;;;;;;745674;184;919558;-74
2022/12/28 06:00:51;;;;;;;10.40;4.53;;;;;;;;;;750505;185;1022264;-72
2022/12/28 06:03:17;;;;;;;6.17;3.70;;;;;;;;;;752403;181;919804;-73
2022/12/28 06:05:43;;;;;;;9.68;4.95;;;;;;;;;;736704;187;923627;-73
2022/12/28 06:08:09;;;;;;;10.53;5.10;;;;;;;;;;739816;185;920494;-75
2022/12/28 06:10:35;;;;;;;7.57;4.20;;;;;;;;;;741107;187;911991;-73
2022/12/28 06:13:01;;;;;;;7.00;4.47;;;;;;;;;;732517;189;920635;-72
2022/12/28 06:15:26;;;;;;;12.47;5.83;;;;;;;;;;745428;185;918735;-73
2022/12/28 06:17:52;;;;;;;10.53;5.00;;;;;;;;;;751277;185;918548;-73
2022/12/28 06:20:18;;;;;;;8.33;4.87;;;;;;;;;;729566;190;919141;-73
2022/12/28 06:22:44;;;;;;;5.57;4.20;;;;;;;;;;743596;185;919293;-73
2022/12/28 06:25:10;;;;;;;8.57;4.00;;;;;;;;;;734945;189;921632;-72
2022/12/28 06:27:36;;;;;;;6.90;4.47;;;;;;;;;;743360;188;920789;-73
2022/12/28 06:30:01;;;;;;;8.60;4.73;;;;;;;;;;736733;188;915190;-72
2022/12/28 06:32:27;;;;;;;8.93;5.50;;;;;;;;;;741040;183;916284;-74
2022/12/28 06:34:53;;;;;;;9.73;5.13;;;;;;;;;;741637;186;916219;-73
2022/12/28 06:37:19;;;;;;;8.10;4.60;;;;;;;;;;730699;187;915068;-72
2022/12/28 06:39:45;;;;;;;8.27;4.47;;;;;;;;;;737460;185;1023830;-73
2022/12/28 06:42:11;;;;;;;7.57;5.67;;;;;;;;;;749723;185;919125;-73
2022/12/28 06:44:37;;;;;;;9.00;5.73;;;;;;;;;;729012;190;919447;-73
2022/12/28 06:47:02;;;;;;;7.18;4.50;;;;;;;;;;734437;189;916997;-74
2022/12/28 06:49:29;;;;;;;10.32;4.15;;;;;;;;;;746998;185;918938;-72
2022/12/28 06:51:55;;;;;;;11.67;5.40;;;;;;;;;;727396;192;918395;-73
2022/12/28 06:54:21;;;;;;;7.70;4.33;;;;;;;;;;737196;187;920107;-74
2022/12/28 06:56:46;;;;;;;7.00;4.90;;;;;;;;;;735932;187;918304;-72
2022/12/28 06:59:12;;;;;;;6.70;4.47;;;;;;;;;;743594;187;918956;-73
2022/12/28 07:01:38;;;;;;;10.40;5.07;;;;;;;;;;735520;186;815542;-73
2022/12/28 07:04:04;;;;;;;16.30;7.03;;;;;;;;;;740370;185;916551;-73
2022/12/28 07:06:30;;;;;;;9.27;5.37;;;;;;;;;;750487;184;918881;-74
2022/12/28 07:08:58;;;;;;;16.53;6.13;;;;;;;;;;737389;189;919141;-72
2022/12/28 07:11:24;;;;;;;8.87;5.40;;;;;;;;;;735561;186;918940;-73
2022/12/28 07:13:51;;;;;;;13.13;5.97;;;;;;;;;;740677;185;1019764;-72
2022/12/28 07:16:16;;;;;;;12.03;5.40;;;;;;;;;;743385;189;812805;-75
2022/12/28 07:18:42;;;;;;;10.03;6.13;;;;;;;;;;740345;186;919009;-74
2022/12/28 07:21:11;;;;;;;10.00;5.27;;;;;;;;;;746965;184;815525;-73
2022/12/28 07:23:37;;;;;;;12.00;5.70;;;;;;;;;;749717;185;814593;-74
2022/12/28 07:26:02;;;;;;;12.70;5.30;;;;;;;;;;738637;187;918905;-75
2022/12/28 07:28:28;;;;;;;7.50;4.43;;;;;;;;;;733485;190;918538;-75
2022/12/28 07:30:54;;;;;;;16.10;5.33;;;;;;;;;;747827;185;919604;-73
2022/12/28 07:33:20;;;;;;;8.40;4.33;;;;;;;;;;732085;190;1122337;-73
2022/12/28 07:35:46;;;;;;;12.10;5.23;;;;;;;;;;733752;186;921614;-74
2022/12/28 07:38:12;;;;;;;7.03;4.60;;;;;;;;;;739942;186;923616;-73
2022/12/28 07:40:38;;;;;;;9.60;5.40;;;;;;;;;;739243;188;918343;-73
2022/12/28 07:43:03;;;;;;;9.13;5.10;;;;;;;;;;743268;185;1009261;-74
2022/12/28 07:45:30;;;;;;;11.13;5.00;;;;;;;;;;736382;190;918163;-75
2022/12/28 07:47:56;;;;;;;7.90;3.90;;;;;;;;;;745624;187;919260;-75
2022/12/28 07:50:22;;;;;;;10.07;4.93;;;;;;;;;;747093;186;921048;-74
2022/12/28 07:52:48;;;;;;;8.05;4.90;;;;;;;;;;752183;184;1020829;-74
2022/12/28 07:55:13;;;;;;;12.10;4.80;;;;;;;;;;743025;188;919213;-73
2022/12/28 07:57:39;;;;;;;6.23;3.87;;;;;;;;;;743632;185;918788;-73
2022/12/28 08:00:06;;;;;;;7.63;4.47;;;;;;;;;;731021;190;922360;-73
2022/12/28 08:02:31;;;;;;;7.90;4.37;;;;;;;;;;738648;185;918758;-73
2022/12/28 08:04:57;;;;;;;8.20;4.60;;;;;;;;;;744476;186;816050;-74
2022/12/28 08:07:23;;;;;;;9.67;4.83;;;;;;;;;;744996;183;917856;-74
2022/12/28 08:09:49;;;;;;;6.33;4.13;;;;;;;;;;735247;190;918946;-73
2022/12/28 08:12:15;;;;;;;8.33;4.33;;;;;;;;;;746446;189;920981;-75
2022/12/28 08:14:41;;;;;;;7.03;4.23;;;;;;;;;;748119;185;854858;-74
2022/12/28 08:17:06;;;;;;;13.00;8.20;;;;;;;;;;741620;185;918662;-74
2022/12/28 08:19:32;;;;;;;13.20;6.60;;;;;;;;;;741760;187;816431;-74
2022/12/28 08:21:58;;;;;;;11.20;7.70;;;;;;;;;;741999;188;920096;-75
2022/12/28 08:24:24;;;;;;;35.80;21.33;;;;;;;;;;746880;185;1019350;-74
2022/12/28 08:26:52;;;;;;;54.00;30.92;;;;;;;;;;738444;186;918677;-73
2022/12/28 08:29:19;;;;;;;68.43;35.67;;;;;;;;;;752364;188;1021916;-74
2022/12/28 08:31:45;;;;;;;14.37;7.93;;;;;;;;;;750461;185;1021579;-73
2022/12/28 08:34:11;;;;;;;10.80;5.90;;;;;;;;;;734044;190;924856;-74
2022/12/28 08:36:36;;;;;;;9.53;5.07;;;;;;;;;;740917;186;910394;-75
2022/12/28 08:39:02;;;;;;;9.17;4.83;;;;;;;;;;747937;184;915972;-74
2022/12/28 08:41:28;;;;;;;9.43;4.70;;;;;;;;;;745638;185;919414;-75
2022/12/28 08:43:54;;;;;;;9.30;5.40;;;;;;;;;;751893;185;919124;-76
2022/12/28 08:46:21;;;;;;;8.83;5.03;;;;;;;;;;735086;190;918557;-77
2022/12/28 08:48:47;;;;;;;7.40;4.53;;;;;;;;;;743621;185;919199;-77
2022/12/28 08:51:14;;;;;;;9.47;4.30;;;;;;;;;;736035;189;920392;-76
2022/12/28 08:53:40;;;;;;;5.90;3.70;;;;;;;;;;746406;186;817087;-75
2022/12/28 08:56:10;;;;;;;10.07;3.87;;;;;;;;;;751099;185;1021302;-77
2022/12/28 08:58:36;;;;;;;6.25;3.55;;;;;;;;;;732914;190;919083;-76
2022/12/28 09:01:12;;;;;;;6.93;4.47;;;;;;;;;;748182;185;816734;-76
2022/12/28 09:03:38;;;;;;;10.27;4.50;;;;;;;;;;741841;189;815669;-76
2022/12/28 09:06:05;;;;;;;6.17;4.53;;;;;;;;;;734363;190;816108;-76
2022/12/28 09:08:31;;;;;;;7.40;4.50;;;;;;;;;;743494;185;918218;-76
2022/12/28 09:10:59;;;;;;;6.70;4.63;;;;;;;;;;740978;188;816756;-77
2022/12/28 09:13:24;;;;;;;10.70;5.00;;;;;;;;;;741956;187;919306;-75
2022/12/28 09:15:56;;;;;;;8.10;4.43;;;;;;;;;;747595;183;919377;-75
2022/12/28 09:18:22;;;;;;;10.77;5.20;;;;;;;;;;739985;189;918847;-76
2022/12/28 09:20:48;;;;;;;7.63;5.30;;;;;;;;;;738274;189;917713;-75
2022/12/28 09:23:14;;;;;;;7.77;5.50;;;;;;;;;;733759;189;1020271;-76
2022/12/28 09:25:39;;;;;;;8.63;5.67;;;;;;;;;;745838;185;817141;-74
2022/12/28 09:28:05;;;;;;;7.40;5.60;;;;;;;;;;743814;189;625203;-76
2022/12/28 09:30:31;;;;;;;8.20;5.07;;;;;;;;;;735416;189;919260;-75
2022/12/28 09:35:28;;;;;;;10.70;4.60;;;;;;;;;;747930;185;919658;-75
2022/12/28 09:37:54;;;;;;;9.43;4.90;;;;;;;;;;745760;186;1016324;-75
2022/12/28 09:40:20;;;;;;;9.63;5.03;;;;;;;;;;735852;188;872633;-75
2022/12/28 09:42:46;;;;;;;8.73;5.53;;;;;;;;;;730557;190;932146;-75
2022/12/28 09:45:12;;;;;;;7.37;4.90;;;;;;;;;;737322;190;920599;-75
2022/12/28 09:47:46;;;;;;;5.33;3.93;;;;;;;;;;735836;186;918258;-74
2022/12/28 09:50:30;;;;;;;8.60;4.97;;;;;;;;;;732447;191;918550;-75
2022/12/28 09:53:02;;;;;;;10.67;5.53;;;;;;;;;;738296;185;915594;-76
2022/12/28 09:55:27;;;;;;;6.20;4.30;;;;;;;;;;737963;189;918237;-75
2022/12/28 09:57:54;;;;;;;5.85;3.72;;;;;;;;;;745846;185;818369;-75
2022/12/28 10:00:20;;;;;;;8.50;4.87;;;;;;;;;;742364;189;815212;-75
2022/12/28 10:02:48;;;;;;;7.95;5.30;;;;;;;;;;748099;185;919692;-74
2022/12/28 10:05:14;;;;;;;9.33;4.93;;;;;;;;;;748341;186;919041;-75
2022/12/28 10:07:40;;;;;;;8.20;5.20;;;;;;;;;;742133;188;918080;-75
2022/12/28 10:10:06;;;;;;;7.97;4.50;;;;;;;;;;731832;190;918352;-75
2022/12/28 10:12:32;;;;;;;7.20;5.40;;;;;;;;;;739069;187;916052;-76
2022/12/28 10:14:58;;;;;;;7.07;4.50;;;;;;;;;;748527;186;919002;-75
2022/12/28 10:17:25;;;;;;;11.60;4.17;;;;;;;;;;733426;187;918532;-74
2022/12/28 10:19:50;;;;;;;8.03;4.33;;;;;;;;;;742422;185;920321;-76
2022/12/28 10:22:16;;;;;;;10.13;5.90;;;;;;;;;;740334;185;920501;-75
2022/12/28 10:24:42;;;;;;;9.23;4.80;;;;;;;;;;741810;185;916779;-76
2022/12/28 10:27:09;;;;;;;9.73;5.90;;;;;;;;;;737945;185;917732;-75
2022/12/28 10:29:34;;;;;;;6.50;4.70;;;;;;;;;;752647;184;914800;-74
2022/12/28 10:32:00;;;;;;;7.80;5.63;;;;;;;;;;745897;187;813514;-74
2022/12/28 10:34:26;;;;;;;5.90;4.23;;;;;;;;;;747050;185;918688;-75
2022/12/28 10:36:52;;;;;;;7.10;3.80;;;;;;;;;;739634;187;816973;-75
2022/12/28 10:39:21;;;;;;;6.20;4.30;;;;;;;;;;747718;185;713319;-75
2022/12/28 10:41:47;;;;;;;5.33;3.90;;;;;;;;;;744981;188;816645;-75
2022/12/28 10:44:14;;;;;;;10.93;3.90;;;;;;;;;;748181;185;817180;-75
2022/12/28 10:46:39;;;;;;;7.60;4.33;;;;;;;;;;736774;187;904932;-75
2022/12/28 10:49:05;;;;;;;5.87;3.80;;;;;;;;;;747047;185;921013;-76
2022/12/28 10:51:32;;;;;;;5.90;3.80;;;;;;;;;;739964;187;818165;-75
2022/12/28 10:53:58;;;;;;;6.60;3.87;;;;;;;;;;732104;190;918792;-76
2022/12/28 10:56:25;;;;;;;7.93;4.80;;;;;;;;;;749338;186;799876;-75
2022/12/28 10:58:51;;;;;;;8.77;3.97;;;;;;;;;;726445;190;918423;-75
2022/12/28 11:01:17;;;;;;;7.13;4.43;;;;;;;;;;734756;187;917653;-75
2022/12/28 11:03:43;;;;;;;6.37;4.03;;;;;;;;;;743689;185;919345;-74
2022/12/28 11:06:24;;;;;;;7.10;5.00;;;;;;;;;;737004;186;915465;-76
2022/12/28 11:08:56;;;;;;;7.33;4.40;;;;;;;;;;744215;186;913746;-75
2022/12/28 11:11:21;;;;;;;8.43;4.90;;;;;;;;;;731588;190;1020958;-76
2022/12/28 11:13:47;;;;;;;8.80;5.50;;;;;;;;;;733915;191;1008619;-75
2022/12/28 11:16:13;;;;;;;7.73;5.10;;;;;;;;;;745347;185;915624;-75
2022/12/28 11:18:39;;;;;;;8.00;5.20;;;;;;;;;;739169;186;818787;-75
2022/12/28 11:21:05;;;;;;;10.00;5.63;;;;;;;;;;739899;185;919388;-75
2022/12/28 11:23:33;;;;;;;8.83;4.50;;;;;;;;;;740602;186;815604;-76
2022/12/28 11:25:57;;;;;;;7.50;5.30;;;;;;;;;;740193;188;919691;-75
2022/12/28 11:28:22;;;;;;;8.27;4.53;;;;;;;;;;746525;185;918115;-75
2022/12/28 11:30:48;;;;;;;8.23;3.33;;;;;;;;;;738817;187;918964;-75
2022/12/28 11:33:20;;;;;;;6.60;3.87;;;;;;;;;;740546;190;817804;-75
2022/12/28 11:35:47;;;;;;;6.83;4.20;;;;;;;;;;745993;185;816566;-75
2022/12/28 11:38:12;;;;;;;8.43;4.30;;;;;;;;;;736319;186;920883;-76
2022/12/28 11:40:44;;;;;;;13.07;4.10;;;;;;;;;;748450;186;810732;-75
2022/12/28 11:43:25;;;;;;;6.90;4.10;;;;;;;;;;748824;188;913870;-76
2022/12/28 11:45:51;;;;;;;12.03;4.80;;;;;;;;;;740886;189;918435;-75
2022/12/28 11:48:23;;;;;;;6.40;4.53;;;;;;;;;;749455;185;1019321;-75
2022/12/28 11:50:50;;;;;;;6.53;3.73;;;;;;;;;;731976;190;1022386;-76
2022/12/28 11:53:19;;;;;;;10.02;4.35;;;;;;;;;;736888;188;918971;-74
2022/12/28 11:55:46;;;;;;;5.47;4.43;;;;;;;;;;735056;189;918948;-77
2022/12/28 11:58:17;;;;;;;5.30;3.47;;;;;;;;;;720090;192;936202;-75
2022/12/28 12:00:46;;;;;;;6.70;4.50;;;;;;;;;;723880;193;815157;-76
2022/12/28 12:03:12;;;;;;;6.67;3.87;;;;;;;;;;734416;188;1012948;-75
2022/12/28 12:05:53;;;;;;;9.27;4.67;;;;;;;;;;740991;186;905010;-76
2022/12/28 12:08:26;;;;;;;6.97;3.65;;;;;;;;;;734685;186;893016;-76
2022/12/28 12:10:58;;;;;;;5.73;3.67;;;;;;;;;;736391;190;919367;-76
2022/12/28 12:13:39;;;;;;;7.70;3.87;;;;;;;;;;739619;188;918039;-76
2022/12/28 12:16:05;;;;;;;9.03;4.67;;;;;;;;;;743187;186;927291;-76
2022/12/28 12:18:31;;;;;;;6.80;4.60;;;;;;;;;;735134;190;918482;-75
2022/12/28 12:21:00;;;;;;;5.93;3.80;;;;;;;;;;740965;189;921650;-75
2022/12/28 12:23:28;;;;;;;7.40;3.50;;;;;;;;;;748834;185;912605;-76
2022/12/28 12:25:53;;;;;;;10.83;5.00;;;;;;;;;;736004;190;919229;-75
2022/12/28 12:28:21;;;;;;;6.60;4.03;;;;;;;;;;747007;188;814581;-75
2022/12/28 12:30:47;;;;;;;6.23;3.87;;;;;;;;;;730128;190;942581;-76
2022/12/28 12:33:13;;;;;;;5.83;4.00;;;;;;;;;;749384;186;789400;-75
2022/12/28 12:35:39;;;;;;;5.90;3.33;;;;;;;;;;739625;190;915652;-73
2022/12/28 12:38:10;;;;;;;7.53;4.70;;;;;;;;;;727578;188;914089;-76
2022/12/28 12:40:38;;;;;;;6.07;3.60;;;;;;;;;;725812;188;919202;-75
2022/12/28 12:43:08;;;;;;;7.37;4.13;;;;;;;;;;725270;191;915549;-74
2022/12/28 12:45:41;;;;;;;6.03;4.40;;;;;;;;;;743529;186;919077;-73
2022/12/28 12:48:08;;;;;;;8.40;3.65;;;;;;;;;;740286;187;911468;-76
2022/12/28 12:50:43;;;;;;;8.97;4.17;;;;;;;;;;737643;188;917882;-74
2022/12/28 12:53:10;;;;;;;6.23;3.70;;;;;;;;;;737724;186;920279;-74
2022/12/28 12:55:36;;;;;;;5.63;4.30;;;;;;;;;;741477;184;920844;-74
2022/12/28 12:58:06;;;;;;;5.40;4.30;;;;;;;;;;753930;183;918112;-75
2022/12/28 13:00:42;;;;;;;6.17;3.90;;;;;;;;;;746064;186;921790;-74
2022/12/28 13:03:08;;;;;;;9.03;4.20;;;;;;;;;;746364;183;1010469;-75
2022/12/28 13:05:35;;;;;;;5.77;4.10;;;;;;;;;;742119;185;811381;-74
2022/12/28 13:08:00;;;;;;;8.00;5.10;;;;;;;;;;743150;187;814572;-75
2022/12/28 13:10:27;;;;;;;10.30;5.40;;;;;;;;;;728614;190;915774;-75
2022/12/28 13:12:53;;;;;;;6.00;4.50;;;;;;;;;;729712;191;915183;-75
2022/12/28 13:15:19;;;;;;;10.20;6.60;;;;;;;;;;743538;186;939686;-74
2022/12/28 13:17:51;;;;;;;10.23;5.47;;;;;;;;;;743740;186;912623;-75
2022/12/28 13:20:16;;;;;;;7.23;4.10;;;;;;;;;;748000;185;920230;-75
2022/12/28 13:22:42;;;;;;;6.87;4.33;;;;;;;;;;737828;189;961732;-74
2022/12/28 13:25:08;;;;;;;9.63;3.77;;;;;;;;;;739419;187;898362;-75
2022/12/28 13:27:34;;;;;;;8.23;5.30;;;;;;;;;;742190;186;818333;-75
2022/12/28 13:30:00;;;;;;;5.80;3.90;;;;;;;;;;736167;189;918774;-75
2022/12/28 13:32:26;;;;;;;6.20;4.10;;;;;;;;;;742419;185;921258;-75
2022/12/28 13:34:52;;;;;;;6.63;3.60;;;;;;;;;;741910;187;1018776;-76
2022/12/28 13:37:17;;;;;;;9.40;4.70;;;;;;;;;;732237;188;918538;-74
2022/12/28 13:39:43;;;;;;;6.40;3.87;;;;;;;;;;731257;190;916849;-74
2022/12/28 13:42:11;;;;;;;8.27;4.40;;;;;;;;;;742296;190;918766;-75
2022/12/28 13:44:40;;;;;;;6.03;3.70;;;;;;;;;;735246;186;946615;-75
2022/12/28 13:47:06;;;;;;;7.30;3.97;;;;;;;;;;740942;185;912352;-74
2022/12/28 13:49:33;;;;;;;7.00;4.23;;;;;;;;;;742043;187;918516;-74
2022/12/28 13:51:59;;;;;;;12.90;4.27;;;;;;;;;;745426;187;919425;-75
2022/12/28 13:54:25;;;;;;;8.10;4.40;;;;;;;;;;749273;185;816873;-76
2022/12/28 13:56:50;;;;;;;6.63;4.10;;;;;;;;;;737586;190;918537;-74
2022/12/28 13:59:16;;;;;;;6.40;4.10;;;;;;;;;;738878;187;891717;-75
2022/12/28 14:01:43;;;;;;;6.87;4.03;;;;;;;;;;741407;187;820539;-75
2022/12/28 14:04:10;;;;;;;6.20;3.53;;;;;;;;;;736175;189;1020221;-74
2022/12/28 14:06:36;;;;;;;8.83;4.77;;;;;;;;;;736607;189;809381;-75
2022/12/28 14:09:01;;;;;;;11.60;4.53;;;;;;;;;;745721;186;916932;-74
2022/12/28 14:11:28;;;;;;;5.90;3.67;;;;;;;;;;740895;186;912683;-74
2022/12/28 14:13:54;;;;;;;7.57;4.12;;;;;;;;;;738336;190;915216;-74
2022/12/28 14:16:20;;;;;;;10.10;5.10;;;;;;;;;;745315;188;922039;-74
2022/12/28 14:18:46;;;;;;;8.57;4.20;;;;;;;;;;738903;188;912927;-74
2022/12/28 14:21:12;;;;;;;6.20;3.50;;;;;;;;;;736002;187;918981;-74
2022/12/28 14:23:37;;;;;;;6.50;3.87;;;;;;;;;;746763;185;917968;-74
2022/12/28 14:26:04;;;;;;;8.43;4.60;;;;;;;;;;747809;185;919089;-74
2022/12/28 14:28:31;;;;;;;7.57;4.50;;;;;;;;;;740892;185;943904;-74
2022/12/28 14:30:57;;;;;;;5.55;4.10;;;;;;;;;;739818;189;935643;-75
2022/12/28 14:33:22;;;;;;;10.13;5.30;;;;;;;;;;731229;190;918315;-76
2022/12/28 14:35:50;;;;;;;9.43;5.03;;;;;;;;;;744038;184;919802;-75
2022/12/28 14:38:16;;;;;;;7.13;4.63;;;;;;;;;;731446;190;932310;-74
2022/12/28 14:40:42;;;;;;;8.87;4.20;;;;;;;;;;744649;188;846108;-74
2022/12/28 14:43:08;;;;;;;5.80;4.93;;;;;;;;;;734481;187;918370;-75
2022/12/28 14:45:35;;;;;;;14.43;6.30;;;;;;;;;;732550;188;1021945;-74
2022/12/28 14:48:01;;;;;;;15.03;6.50;;;;;;;;;;737097;190;919292;-74